createdAt,value
2023-03-15T03:58:56.076Z,19.82
2023-03-15T03:59:56.058Z,19.78
2023-03-15T04:00:56.008Z,19.79
2023-03-15T04:01:55.992Z,19.79
2023-03-15T04:02:56.079Z,19.74
2023-03-15T04:03:55.992Z,19.87
2023-03-15T04:04:56.069Z,19.79
2023-03-15T04:05:55.968Z,19.82
2023-03-15T04:06:55.957Z,19.86
2023-03-15T04:07:55.981Z,19.86
2023-03-15T04:08:55.961Z,19.89
2023-03-15T04:09:55.964Z,19.86
2023-03-15T04:10:55.942Z,19.86
2023-03-15T04:11:55.935Z,19.86
2023-03-15T04:12:55.940Z,19.89
2023-03-15T04:13:55.945Z,19.90
2023-03-15T04:14:55.936Z,19.89
2023-03-15T04:15:55.951Z,19.98
2023-03-15T04:16:55.898Z,19.93
2023-03-15T04:17:56.067Z,19.95
2023-03-15T04:18:55.914Z,19.93
2023-03-15T04:19:55.901Z,20.02
2023-03-15T04:20:55.884Z,20.05
2023-03-15T04:21:55.894Z,20.11
2023-03-15T04:22:55.865Z,20.08
2023-03-15T04:23:55.878Z,20.01
2023-03-15T04:24:55.853Z,20.07
2023-03-15T04:25:55.865Z,20.05
2023-03-15T04:26:55.860Z,20.10
2023-03-15T04:27:55.834Z,20.05
2023-03-15T04:28:55.850Z,20.20
2023-03-15T04:29:55.844Z,20.20
2023-03-15T04:30:55.890Z,20.20
2023-03-15T04:31:55.827Z,20.16
2023-03-15T04:32:55.856Z,20.20
2023-03-15T04:33:55.821Z,20.19
2023-03-15T04:34:55.840Z,20.15
2023-03-15T04:35:55.902Z,20.18
2023-03-15T04:36:55.841Z,20.30
2023-03-15T04:37:55.803Z,20.27
2023-03-15T04:38:55.805Z,20.29
2023-03-15T04:39:55.823Z,20.30
2023-03-15T04:40:55.795Z,20.23
2023-03-15T04:41:55.790Z,20.29
2023-03-15T04:42:55.777Z,20.22
2023-03-15T04:43:55.786Z,20.37
2023-03-15T04:44:55.831Z,20.26
2023-03-15T04:45:55.775Z,20.34
2023-03-15T04:46:55.866Z,20.30
2023-03-15T04:47:55.763Z,20.34
2023-03-15T04:48:55.770Z,20.42
2023-03-15T04:49:55.759Z,20.37
2023-03-15T04:50:55.751Z,20.38
2023-03-15T04:51:55.739Z,20.41
2023-03-15T04:52:55.739Z,20.37
2023-03-15T04:53:55.746Z,20.46
2023-03-15T04:54:55.749Z,20.44
2023-03-15T04:55:55.722Z,20.34
2023-03-15T04:56:55.769Z,20.37
2023-03-15T04:57:55.743Z,20.40
2023-03-15T04:58:55.702Z,20.38
2023-03-15T04:59:55.706Z,20.38
2023-03-15T05:00:55.759Z,20.38
2023-03-15T05:01:55.718Z,20.48
2023-03-15T05:02:55.717Z,20.38
2023-03-15T05:03:55.717Z,20.37
2023-03-15T05:04:55.713Z,20.49
2023-03-15T05:05:55.726Z,20.56
2023-03-15T05:06:55.686Z,20.51
2023-03-15T05:07:55.662Z,20.49
2023-03-15T05:08:55.664Z,20.48
2023-03-15T05:09:55.655Z,20.53
2023-03-15T05:10:55.654Z,20.44
2023-03-15T05:11:55.858Z,20.49
2023-03-15T05:12:55.647Z,20.56
2023-03-15T05:13:55.649Z,20.58
2023-03-15T05:14:55.662Z,20.49
2023-03-15T05:15:55.706Z,20.56
2023-03-15T05:16:55.666Z,20.51
2023-03-15T05:17:55.628Z,20.61
2023-03-15T05:18:55.631Z,20.48
2023-03-15T05:19:55.613Z,20.63
2023-03-15T05:20:55.624Z,20.56
2023-03-15T05:21:55.610Z,20.57
2023-03-15T05:22:55.631Z,20.58
2023-03-15T05:23:55.611Z,20.63
2023-03-15T05:24:55.600Z,20.54
2023-03-15T05:25:55.610Z,20.57
2023-03-15T05:26:55.588Z,20.57
2023-03-15T05:27:55.577Z,20.54
2023-03-15T05:28:55.645Z,20.57
2023-03-15T05:29:55.576Z,20.58
2023-03-15T05:30:55.590Z,20.56
2023-03-15T05:31:55.662Z,20.58
2023-03-15T05:32:55.667Z,20.66
2023-03-15T05:33:55.561Z,20.60
2023-03-15T05:34:55.564Z,20.63
2023-03-15T05:35:55.612Z,20.63
2023-03-15T05:36:55.542Z,20.58
2023-03-15T05:37:55.555Z,20.63
2023-03-15T05:38:55.529Z,20.61
2023-03-15T05:39:55.544Z,20.66
2023-03-15T05:40:55.539Z,20.63
2023-03-15T05:41:55.555Z,20.64
2023-03-15T05:42:55.563Z,20.68
2023-03-15T05:43:55.521Z,20.72
2023-03-15T05:44:55.501Z,20.64
2023-03-15T05:45:55.513Z,20.67
2023-03-15T05:46:55.489Z,20.74
2023-03-15T05:47:55.514Z,20.71
2023-03-15T05:48:55.494Z,20.74
2023-03-15T05:49:55.483Z,20.66
2023-03-15T05:50:55.527Z,20.75
2023-03-15T05:51:55.468Z,20.71
2023-03-15T05:52:55.524Z,20.72
2023-03-15T05:53:55.461Z,20.74
2023-03-15T05:54:55.561Z,20.75
2023-03-15T05:55:55.450Z,20.72
2023-03-15T05:56:55.452Z,20.71
2023-03-15T05:57:55.448Z,20.79
2023-03-15T05:58:55.478Z,20.71
2023-03-15T05:59:55.437Z,20.78
2023-03-15T06:00:55.454Z,20.78
2023-03-15T06:01:55.426Z,20.83
2023-03-15T06:02:55.475Z,20.74
2023-03-15T06:03:55.480Z,20.76
2023-03-15T06:04:55.417Z,20.78
2023-03-15T06:05:55.406Z,20.79
2023-03-15T06:06:55.419Z,20.83
2023-03-15T06:07:55.414Z,20.76
2023-03-15T06:08:55.425Z,20.85
2023-03-15T06:09:55.418Z,20.81
2023-03-15T06:10:55.421Z,20.83
2023-03-15T06:11:55.402Z,20.86
2023-03-15T06:12:55.405Z,20.79
2023-03-15T06:13:55.396Z,20.85
2023-03-15T06:14:55.370Z,20.81
2023-03-15T06:15:55.366Z,20.79
2023-03-15T06:16:55.496Z,20.86
2023-03-15T06:17:55.378Z,20.85
2023-03-15T06:18:55.353Z,20.79
2023-03-15T06:19:55.353Z,20.82
2023-03-15T06:20:55.352Z,20.81
2023-03-15T06:21:55.345Z,20.81
2023-03-15T06:22:55.361Z,20.78
2023-03-15T06:23:55.368Z,20.76
2023-03-15T06:24:55.417Z,20.81
2023-03-15T06:25:55.329Z,20.83
2023-03-15T06:26:55.325Z,20.88
2023-03-15T06:27:55.341Z,20.82
2023-03-15T06:28:55.419Z,20.82
2023-03-15T06:29:55.297Z,20.85
2023-03-15T06:30:55.350Z,20.91
2023-03-15T06:31:55.288Z,20.90
2023-03-15T06:32:55.377Z,20.93
2023-03-15T06:33:55.288Z,20.90
2023-03-15T06:34:55.278Z,20.88
2023-03-15T06:35:55.290Z,20.97
2023-03-15T06:36:55.281Z,20.94
2023-03-15T06:37:55.305Z,20.98
2023-03-15T06:38:55.308Z,21.03
2023-03-15T06:39:55.279Z,21.00
2023-03-15T06:40:55.285Z,21.04
2023-03-15T06:41:55.250Z,21.03
2023-03-15T06:42:55.244Z,21.03
2023-03-15T06:43:55.255Z,20.98
2023-03-15T06:44:55.253Z,21.03
2023-03-15T06:45:55.518Z,21.06
2023-03-15T06:48:28.279Z,21.11
2023-03-15T06:49:28.250Z,21.13
2023-03-15T06:50:34.438Z,21.12
2023-03-15T06:51:28.277Z,21.18
2023-03-15T06:52:28.265Z,21.21
2023-03-15T06:53:28.271Z,21.22
2023-03-15T06:54:28.254Z,21.25
2023-03-15T06:55:28.281Z,21.23
2023-03-15T06:56:28.261Z,21.25
2023-03-15T06:57:30.050Z,21.33
2023-03-15T06:58:28.269Z,21.34
2023-03-15T06:59:28.297Z,21.38
2023-03-15T07:00:28.242Z,21.40
2023-03-15T07:01:28.334Z,21.36
2023-03-15T07:02:28.297Z,21.45
2023-03-15T07:03:28.230Z,21.40
2023-03-15T07:04:28.219Z,21.51
2023-03-15T07:05:28.228Z,21.48
2023-03-15T07:06:28.237Z,21.46
2023-03-15T07:08:28.274Z,21.52
2023-03-15T07:09:28.182Z,21.49
2023-03-15T07:10:28.221Z,21.64
2023-03-15T07:11:28.194Z,21.64
2023-03-15T07:12:28.186Z,21.68
2023-03-15T07:13:28.202Z,21.62
2023-03-15T07:14:28.157Z,21.74
2023-03-15T07:15:28.208Z,21.77
2023-03-15T07:16:28.181Z,21.76
2023-03-15T07:17:28.145Z,21.77
2023-03-15T07:18:28.151Z,21.77
2023-03-15T07:19:28.148Z,21.86
2023-03-15T07:20:28.149Z,21.92
2023-03-15T07:21:28.145Z,21.97
2023-03-15T07:22:28.167Z,21.96
2023-03-15T07:23:28.126Z,22.00
2023-03-15T07:24:28.125Z,22.00
2023-03-15T07:25:28.128Z,22.00
2023-03-15T07:26:28.131Z,22.05
2023-03-15T07:27:28.138Z,22.11
2023-03-15T07:28:28.187Z,22.12
2023-03-15T07:29:28.109Z,22.08
2023-03-15T07:30:28.156Z,22.14
2023-03-15T07:31:28.189Z,22.16
2023-03-15T07:32:28.323Z,22.09
2023-03-15T07:33:28.162Z,22.23
2023-03-15T07:34:28.092Z,22.24
2023-03-15T07:35:28.124Z,22.24
2023-03-15T07:36:28.096Z,22.30
2023-03-15T07:37:28.091Z,22.31
2023-03-15T07:38:28.074Z,22.31
2023-03-15T07:39:28.079Z,22.36
2023-03-15T07:40:28.095Z,22.42
2023-03-15T07:41:28.071Z,22.42
2023-03-15T07:42:28.090Z,22.49
2023-03-15T07:43:28.139Z,22.42
2023-03-15T07:44:28.081Z,22.48
2023-03-15T07:45:28.086Z,22.51
2023-03-15T07:46:28.085Z,22.48
2023-03-15T07:47:28.069Z,22.60
2023-03-15T07:48:28.044Z,22.64
2023-03-15T07:49:28.037Z,22.66
2023-03-15T07:50:28.096Z,22.64
2023-03-15T07:51:28.058Z,22.60
2023-03-15T07:52:28.133Z,22.64
2023-03-15T07:53:28.048Z,22.71
2023-03-15T07:54:28.869Z,22.73
2023-03-15T07:55:28.074Z,22.73
2023-03-15T07:56:28.016Z,22.81
2023-03-15T07:57:29.017Z,22.85
2023-03-15T07:58:28.031Z,22.81
2023-03-15T07:59:28.040Z,22.78
2023-03-15T08:00:28.045Z,22.91
2023-03-15T08:01:28.015Z,22.79
2023-03-15T08:02:30.197Z,22.99
2023-03-15T08:03:28.070Z,22.99
2023-03-15T08:04:28.005Z,22.99
2023-03-15T08:05:29.190Z,23.03
2023-03-15T08:06:28.121Z,23.00
2023-03-15T08:07:27.985Z,23.06
2023-03-15T08:08:27.990Z,23.06
2023-03-15T08:09:28.000Z,23.06
2023-03-15T08:10:28.004Z,23.07
2023-03-15T08:11:28.012Z,23.07
2023-03-15T08:13:27.976Z,23.07
2023-03-15T08:14:27.997Z,23.15
2023-03-15T08:15:28.000Z,23.18
2023-03-15T08:16:28.061Z,23.26
2023-03-15T08:17:27.971Z,23.19
2023-03-15T08:18:27.972Z,23.22
2023-03-15T08:19:27.966Z,23.29
2023-03-15T08:20:29.814Z,23.25
2023-03-15T08:21:27.974Z,23.25
2023-03-15T08:22:27.995Z,23.32
2023-03-15T08:23:27.957Z,23.40
2023-03-15T08:24:27.953Z,23.40
2023-03-15T08:25:27.949Z,23.41
2023-03-15T08:26:27.983Z,23.35
2023-03-15T08:28:27.970Z,23.45
2023-03-15T08:29:27.948Z,23.45
2023-03-15T08:30:28.099Z,23.47
2023-03-15T08:31:28.062Z,23.47
2023-03-15T08:32:27.982Z,23.57
2023-03-15T08:33:27.953Z,23.56
2023-03-15T08:34:27.937Z,23.59
2023-03-15T08:35:28.015Z,23.63
2023-03-15T08:36:28.499Z,23.59
2023-03-15T08:37:28.984Z,23.59
2023-03-15T08:38:28.033Z,23.66
2023-03-15T08:39:28.035Z,23.66
2023-03-15T08:40:28.385Z,23.70
2023-03-15T08:41:28.082Z,23.72
2023-03-15T08:42:27.963Z,23.75
2023-03-15T08:43:27.940Z,23.71
2023-03-15T08:44:28.200Z,23.77
2023-03-15T08:45:27.948Z,23.78
2023-03-15T08:46:28.085Z,23.79
2023-03-15T08:47:27.967Z,23.84
2023-03-15T08:48:27.908Z,23.84
2023-03-15T08:49:27.907Z,23.84
2023-03-15T08:50:27.957Z,23.85
2023-03-15T08:51:27.926Z,23.96
2023-03-15T08:52:27.933Z,23.93
2023-03-15T08:53:27.923Z,23.97
2023-03-15T08:54:28.506Z,24.00
2023-03-15T08:55:27.888Z,23.92
2023-03-15T08:56:27.893Z,23.94
2023-03-15T08:57:27.921Z,23.97
2023-03-15T08:58:27.902Z,23.93
2023-03-15T08:59:32.318Z,24.00
2023-03-15T09:00:27.935Z,24.03
2023-03-15T09:01:27.890Z,24.02
2023-03-15T09:02:27.976Z,24.09
2023-03-15T09:03:27.884Z,24.04
2023-03-15T09:04:28.010Z,24.08
2023-03-15T09:05:27.903Z,24.11
2023-03-15T09:06:27.894Z,24.12
2023-03-15T09:07:27.867Z,24.19
2023-03-15T09:08:27.868Z,24.19
2023-03-15T09:09:27.872Z,24.19
2023-03-15T09:10:27.895Z,24.17
2023-03-15T09:11:27.962Z,24.22
2023-03-15T09:12:27.866Z,24.19
2023-03-15T09:13:27.865Z,24.19
2023-03-15T09:14:27.882Z,24.24
2023-03-15T09:15:27.872Z,24.24
2023-03-15T09:16:28.117Z,24.24
2023-03-15T09:17:27.892Z,24.26
2023-03-15T09:18:27.897Z,24.26
2023-03-15T09:19:27.891Z,24.22
2023-03-15T09:20:27.847Z,24.27
2023-03-15T09:21:27.855Z,24.30
2023-03-15T09:22:38.974Z,24.33
2023-03-15T09:23:27.867Z,24.30
2023-03-15T09:24:27.879Z,24.29
2023-03-15T09:25:27.851Z,24.27
2023-03-15T09:26:27.862Z,24.30
2023-03-15T09:27:27.920Z,24.37
2023-03-15T09:28:27.866Z,24.33
2023-03-15T09:30:27.864Z,24.39
2023-03-15T09:31:27.974Z,24.34
2023-03-15T09:32:27.925Z,24.40
2023-03-15T09:33:27.835Z,24.49
2023-03-15T09:34:33.286Z,24.49
2023-03-15T09:35:27.906Z,24.54
2023-03-15T09:36:27.853Z,24.45
2023-03-15T09:37:27.860Z,24.56
2023-03-15T09:38:27.841Z,24.59
2023-03-15T09:39:27.848Z,24.61
2023-03-15T09:41:27.846Z,24.59
2023-03-15T09:42:27.860Z,24.63
2023-03-15T09:43:27.845Z,24.67
2023-03-15T09:44:27.857Z,24.67
2023-03-15T09:45:27.841Z,24.71
2023-03-15T09:46:28.091Z,24.74
2023-03-15T09:47:27.830Z,24.67
2023-03-15T09:48:27.952Z,24.82
2023-03-15T09:51:00.925Z,24.80
2023-03-15T09:52:00.853Z,24.82
2023-03-15T09:53:00.868Z,24.80
2023-03-15T09:55:00.851Z,24.89
2023-03-15T09:56:00.867Z,24.85
2023-03-15T09:57:00.855Z,24.89
2023-03-15T09:58:00.868Z,24.90
2023-03-15T09:59:00.873Z,24.90
2023-03-15T10:00:00.846Z,24.93
2023-03-15T10:01:00.860Z,24.97
2023-03-15T10:02:00.877Z,25.01
2023-03-15T10:13:20.328Z,25.01
2023-03-15T10:14:20.296Z,25.02
2023-03-15T10:15:20.281Z,25.15
2023-03-15T10:16:20.320Z,25.05
2023-03-15T10:17:20.248Z,25.07
2023-03-15T10:18:20.269Z,25.08
2023-03-15T10:19:20.255Z,25.15
2023-03-15T10:20:20.259Z,25.11
2023-03-15T10:22:20.272Z,25.23
2023-03-15T10:23:20.335Z,25.24
2023-03-15T10:24:20.239Z,25.29
2023-03-15T10:25:20.261Z,25.30
2023-03-15T10:26:20.357Z,25.33
2023-03-15T10:27:20.281Z,25.41
2023-03-15T10:28:21.533Z,25.38
2023-03-15T10:29:20.530Z,25.41
2023-03-15T10:30:20.492Z,25.48
2023-03-15T10:31:22.906Z,25.41
2023-03-15T10:32:20.293Z,25.63
2023-03-15T10:33:20.318Z,25.56
2023-03-15T10:34:20.324Z,25.59
2023-03-15T10:35:20.261Z,25.66
2023-03-15T10:36:20.340Z,25.70
2023-03-15T10:37:20.256Z,25.70
2023-03-15T10:38:20.254Z,25.76
2023-03-15T10:39:20.234Z,25.84
2023-03-15T10:40:20.283Z,25.84
2023-03-15T10:41:28.490Z,25.88
2023-03-15T10:42:20.280Z,25.94
2023-03-15T10:43:20.251Z,26.06
2023-03-15T10:44:20.261Z,25.99
2023-03-15T10:45:20.301Z,25.99
2023-03-15T10:46:20.414Z,26.04
2023-03-15T10:47:24.167Z,26.06
2023-03-15T10:48:20.411Z,26.00
2023-03-15T10:49:20.253Z,25.99
2023-03-15T10:50:20.290Z,25.94
2023-03-15T10:51:22.364Z,26.04
2023-03-15T10:52:20.277Z,26.09
2023-03-15T10:53:20.248Z,26.09
2023-03-15T10:54:20.275Z,26.11
2023-03-15T10:55:20.248Z,26.24
2023-03-15T10:56:20.243Z,26.27
2023-03-15T10:57:20.269Z,26.34
2023-03-15T10:58:20.273Z,26.34
2023-03-15T10:59:20.258Z,26.39
2023-03-15T11:00:20.373Z,26.26
2023-03-15T11:01:20.327Z,26.39
2023-03-15T11:02:20.357Z,26.45
2023-03-15T11:03:20.279Z,26.53
2023-03-15T11:04:20.246Z,26.60
2023-03-15T11:05:20.260Z,26.59
2023-03-15T11:06:20.262Z,26.74
2023-03-15T11:07:20.276Z,26.76
2023-03-15T11:08:20.262Z,26.75
2023-03-15T11:09:20.272Z,26.82
2023-03-15T11:10:20.276Z,26.68
2023-03-15T11:11:20.321Z,26.71
2023-03-15T11:12:20.262Z,26.74
2023-03-15T11:13:20.268Z,26.69
2023-03-15T11:14:20.267Z,26.72
2023-03-15T11:15:20.288Z,26.67
2023-03-15T11:16:20.312Z,26.67
2023-03-15T11:17:20.307Z,26.60
2023-03-15T11:18:20.294Z,26.59
2023-03-15T11:19:20.275Z,26.59
2023-03-15T11:20:20.302Z,26.52
2023-03-15T11:21:20.293Z,26.49
2023-03-15T11:22:20.269Z,26.42
2023-03-15T11:23:20.270Z,26.45
2023-03-15T11:24:20.319Z,26.32
2023-03-15T11:25:20.309Z,26.38
2023-03-15T11:26:31.514Z,26.38
2023-03-15T11:27:20.322Z,26.34
2023-03-15T11:28:20.378Z,26.32
2023-03-15T11:29:20.270Z,26.38
2023-03-15T11:30:20.305Z,26.35
2023-03-15T11:31:20.331Z,26.30
2023-03-15T11:32:20.287Z,26.32
2023-03-15T11:33:20.303Z,26.42
2023-03-15T11:34:20.289Z,26.35
2023-03-15T11:35:20.329Z,26.34
2023-03-15T11:36:20.314Z,26.34
2023-03-15T11:37:20.319Z,26.37
2023-03-15T11:38:20.285Z,26.24
2023-03-15T11:39:20.299Z,26.19
2023-03-15T11:40:20.286Z,26.16
2023-03-15T11:41:20.288Z,26.15
2023-03-15T11:42:20.320Z,26.12
2023-03-15T11:43:20.288Z,26.01
2023-03-15T11:44:20.342Z,26.00
2023-03-15T11:45:20.298Z,25.85
2023-03-15T11:46:20.290Z,25.86
2023-03-15T11:47:20.309Z,25.85
2023-03-15T11:48:20.295Z,25.76
2023-03-15T11:49:20.298Z,25.70
2023-03-15T11:50:20.300Z,25.64
2023-03-15T11:51:20.295Z,25.67
2023-03-15T11:52:20.299Z,25.59
2023-03-15T11:53:20.297Z,25.62
2023-03-15T11:55:20.303Z,25.64
2023-03-15T11:56:20.309Z,25.57
2023-03-15T11:57:20.280Z,25.70
2023-03-15T11:58:20.289Z,25.75
2023-03-15T11:59:20.303Z,25.79
2023-03-15T12:00:20.371Z,25.78
2023-03-15T12:01:20.286Z,25.78
2023-03-15T12:02:20.367Z,25.79
2023-03-15T12:03:20.353Z,25.88
2023-03-15T12:04:20.284Z,25.99
2023-03-15T12:05:20.308Z,26.03
2023-03-15T12:06:20.276Z,26.06
2023-03-15T12:07:20.433Z,26.00
2023-03-15T12:08:20.302Z,26.03
2023-03-15T12:09:20.276Z,25.94
2023-03-15T12:10:20.368Z,25.91
2023-03-15T12:11:20.282Z,25.89
2023-03-15T12:12:20.329Z,25.88
2023-03-15T12:13:20.285Z,25.81
2023-03-15T12:14:20.287Z,25.79
2023-03-15T12:15:20.477Z,25.71
2023-03-15T12:16:20.427Z,25.70
2023-03-15T12:17:21.366Z,25.60
2023-03-15T12:18:20.360Z,25.56
2023-03-15T12:19:20.302Z,25.79
2023-03-15T12:20:20.313Z,25.99
2023-03-15T12:21:20.302Z,26.12
2023-03-15T12:22:20.303Z,26.37
2023-03-15T12:23:20.327Z,26.52
2023-03-15T12:24:20.304Z,26.74
2023-03-15T12:25:20.282Z,26.99
2023-03-15T12:26:20.301Z,27.06
2023-03-15T12:27:20.277Z,27.26
2023-03-15T12:28:20.287Z,27.41
2023-03-15T12:29:20.339Z,27.49
2023-03-15T12:30:20.291Z,27.68
2023-03-15T12:31:20.443Z,27.96
2023-03-15T12:32:20.281Z,28.08
2023-03-15T12:33:20.325Z,28.31
2023-03-15T12:34:20.295Z,28.46
2023-03-15T12:35:20.289Z,28.58
2023-03-15T12:36:20.292Z,28.65
2023-03-15T12:37:20.329Z,28.97
2023-03-15T12:38:20.297Z,28.91
2023-03-15T12:39:20.351Z,28.97
2023-03-15T12:40:20.313Z,28.82
2023-03-15T12:41:20.345Z,28.70
2023-03-15T12:42:20.309Z,28.61
2023-03-15T12:43:20.324Z,28.51
2023-03-15T12:44:20.330Z,28.42
2023-03-15T12:45:20.330Z,28.23
2023-03-15T12:46:20.415Z,28.17
2023-03-15T12:47:20.382Z,28.03
2023-03-15T12:48:20.319Z,27.99
2023-03-15T12:49:20.311Z,27.89
2023-03-15T12:50:20.330Z,27.86
2023-03-15T12:51:20.357Z,27.66
2023-03-15T12:52:20.327Z,27.59
2023-03-15T12:53:20.340Z,27.49
2023-03-15T12:54:20.378Z,27.43
2023-03-15T12:55:20.353Z,27.49
2023-03-15T12:56:20.337Z,27.61
2023-03-15T12:57:20.328Z,27.75
2023-03-15T12:58:20.376Z,27.69
2023-03-15T12:59:20.340Z,27.66
2023-03-15T13:00:20.360Z,27.98
2023-03-15T13:01:20.360Z,27.96
2023-03-15T13:02:23.050Z,27.80
2023-03-15T13:03:20.385Z,27.69
2023-03-15T13:04:20.351Z,27.61
2023-03-15T13:05:20.358Z,27.89
2023-03-15T13:06:20.349Z,28.17
2023-03-15T13:07:20.364Z,28.41
2023-03-15T13:08:20.380Z,28.70
2023-03-15T13:09:20.392Z,28.88
2023-03-15T13:12:53.473Z,29.50
2023-03-15T13:13:53.466Z,29.40
2023-03-15T13:14:53.490Z,29.18
2023-03-15T13:15:53.508Z,29.01
2023-03-15T13:16:53.459Z,29.29
2023-03-15T13:17:53.471Z,29.51
2023-03-15T13:18:53.474Z,29.75
2023-03-15T13:19:53.505Z,29.85
2023-03-15T13:20:53.486Z,30.06
2023-03-15T13:21:53.490Z,30.18
2023-03-15T13:22:55.775Z,30.04
2023-03-15T13:23:53.504Z,29.72
2023-03-15T13:24:53.536Z,29.57
2023-03-15T13:25:53.489Z,29.36
2023-03-15T13:26:53.493Z,29.17
2023-03-15T13:27:53.498Z,28.94
2023-03-15T13:28:53.495Z,28.86
2023-03-15T13:29:53.600Z,28.82
2023-03-15T13:30:53.696Z,29.05
2023-03-15T13:31:53.495Z,29.38
2023-03-15T13:32:53.607Z,29.52
2023-03-15T13:33:53.522Z,29.82
2023-03-15T13:34:53.511Z,29.98
2023-03-15T13:35:54.214Z,30.06
2023-03-15T13:36:53.545Z,30.26
2023-03-15T13:37:53.525Z,30.16
2023-03-15T13:38:53.529Z,30.19
2023-03-15T13:39:53.538Z,30.35
2023-03-15T13:40:53.554Z,30.16
2023-03-15T13:41:53.539Z,30.22
2023-03-15T13:42:53.531Z,30.21
2023-03-15T13:43:53.532Z,30.25
2023-03-15T13:44:53.556Z,30.24
2023-03-15T13:45:53.554Z,30.31
2023-03-15T13:46:53.588Z,30.29
2023-03-15T13:47:53.560Z,30.11
2023-03-15T13:48:53.560Z,30.03
2023-03-15T13:49:53.574Z,29.88
2023-03-15T13:50:53.556Z,29.65
2023-03-15T13:51:53.596Z,29.57
2023-03-15T13:52:53.563Z,29.35
2023-03-15T13:53:53.578Z,29.05
2023-03-15T13:54:53.569Z,28.95
2023-03-15T13:55:53.578Z,28.82
2023-03-15T13:56:53.620Z,28.73
2023-03-15T13:57:53.577Z,28.54
2023-03-15T13:58:53.587Z,28.31
2023-03-15T13:59:53.604Z,28.45
2023-03-15T14:00:53.584Z,28.68
2023-03-15T14:01:53.806Z,28.91
2023-03-15T14:02:53.709Z,29.06
2023-03-15T14:03:53.617Z,29.35
2023-03-15T14:04:53.609Z,29.63
2023-03-15T14:05:53.586Z,29.70
2023-03-15T14:06:53.645Z,29.82
2023-03-15T14:07:53.590Z,30.06
2023-03-15T14:08:53.598Z,30.18
2023-03-15T14:09:55.285Z,30.31
2023-03-15T14:10:53.609Z,30.52
2023-03-15T14:11:53.626Z,30.67
2023-03-15T14:12:53.636Z,30.81
2023-03-15T14:13:53.616Z,30.91
2023-03-15T14:14:53.645Z,31.06
2023-03-15T14:15:53.700Z,31.18
2023-03-15T14:17:04.953Z,31.36
2023-03-15T14:17:53.637Z,31.44
2023-03-15T14:18:53.630Z,31.58
2023-03-15T14:19:53.683Z,31.59
2023-03-15T14:20:53.640Z,31.55
2023-03-15T14:21:53.659Z,31.60
2023-03-15T14:22:53.652Z,31.49
2023-03-15T14:23:53.650Z,31.58
2023-03-15T14:24:53.666Z,31.71
2023-03-15T14:25:53.662Z,31.82
2023-03-15T14:26:53.719Z,32.00
2023-03-15T14:27:53.672Z,31.97
2023-03-15T14:28:53.685Z,32.03
2023-03-15T14:29:53.681Z,32.17
2023-03-15T14:30:53.689Z,32.27
2023-03-15T14:31:53.706Z,32.28
2023-03-15T14:32:53.806Z,32.34
2023-03-15T14:33:53.728Z,32.43
2023-03-15T14:34:53.708Z,32.53
2023-03-15T14:35:54.353Z,32.53
2023-03-15T14:36:53.720Z,32.72
2023-03-15T14:37:53.725Z,32.74
2023-03-15T14:38:53.737Z,32.72
2023-03-15T14:39:53.728Z,32.81
2023-03-15T14:40:53.747Z,32.81
2023-03-15T14:41:53.750Z,32.89
2023-03-15T14:42:53.820Z,32.86
2023-03-15T14:43:53.794Z,32.89
2023-03-15T14:44:53.798Z,33.03
2023-03-15T14:45:53.815Z,32.93
2023-03-15T14:46:53.766Z,32.98
2023-03-15T14:47:57.113Z,33.01
2023-03-15T14:48:53.770Z,33.03
2023-03-15T14:49:53.778Z,33.08
2023-03-15T14:50:53.804Z,33.03
2023-03-15T14:51:53.782Z,33.06
2023-03-15T14:52:53.802Z,33.05
2023-03-15T14:53:53.797Z,32.99
2023-03-15T14:54:53.818Z,32.94
2023-03-15T14:55:53.827Z,33.03
2023-03-15T14:56:53.822Z,33.02
2023-03-15T14:57:53.852Z,32.84
2023-03-15T14:58:53.833Z,32.93
2023-03-15T14:59:53.845Z,32.83
2023-03-15T15:00:54.031Z,32.72
2023-03-15T15:01:53.899Z,32.69
2023-03-15T15:02:53.848Z,32.65
2023-03-15T15:03:53.853Z,32.56
2023-03-15T15:05:14.875Z,32.46
2023-03-15T15:05:53.888Z,32.31
2023-03-15T15:06:53.891Z,32.27
2023-03-15T15:07:53.883Z,32.10
2023-03-15T15:08:53.893Z,32.00
2023-03-15T15:09:53.903Z,31.88
2023-03-15T15:10:53.925Z,31.63
2023-03-15T15:11:53.908Z,31.56
2023-03-15T15:13:05.608Z,31.50
2023-03-15T15:13:53.939Z,31.23
2023-03-15T15:14:53.996Z,31.04
2023-03-15T15:15:56.379Z,30.94
2023-03-15T15:16:54.075Z,30.75
2023-03-15T15:17:53.951Z,30.54
2023-03-15T15:18:53.934Z,30.45
2023-03-15T15:19:53.927Z,30.26
2023-03-15T15:20:53.930Z,30.03
2023-03-15T15:21:53.951Z,29.82
2023-03-15T15:22:53.940Z,29.66
2023-03-15T15:24:00.500Z,29.60
2023-03-15T15:24:53.952Z,29.42
2023-03-15T15:25:54.063Z,29.24
2023-03-15T15:26:53.956Z,29.11
2023-03-15T15:27:53.950Z,28.98
2023-03-15T15:28:53.962Z,28.82
2023-03-15T15:29:53.982Z,28.73
2023-03-15T15:30:53.986Z,28.64
2023-03-15T15:31:54.018Z,28.45
2023-03-15T15:32:54.060Z,28.30
2023-03-15T15:33:53.990Z,28.27
2023-03-15T15:34:53.998Z,28.16
2023-03-15T15:35:54.047Z,27.96
2023-03-15T15:36:53.989Z,27.91
2023-03-15T15:37:53.976Z,27.64
2023-03-15T15:38:53.998Z,27.59
2023-03-15T15:39:53.986Z,27.49
2023-03-15T15:40:53.996Z,27.42
2023-03-15T15:41:54.003Z,27.30
2023-03-15T15:42:54.006Z,27.13
2023-03-15T15:43:54.007Z,26.97
2023-03-15T15:44:53.996Z,26.86
2023-03-15T15:45:54.030Z,26.81
2023-03-15T15:46:53.994Z,26.72
2023-03-15T15:47:53.993Z,26.60
2023-03-15T15:48:54.052Z,26.49
2023-03-15T15:49:53.991Z,26.27
2023-03-15T15:50:54.009Z,26.38
2023-03-15T15:51:54.011Z,26.24
2023-03-15T15:52:54.014Z,26.16
2023-03-15T15:53:53.994Z,26.00
2023-03-15T15:54:53.995Z,25.96
2023-03-15T15:55:54.005Z,25.82
2023-03-15T15:56:53.999Z,25.76
2023-03-15T15:57:54.024Z,25.75
2023-03-15T15:58:54.012Z,25.62
2023-03-15T15:59:54.012Z,25.52
2023-03-15T16:00:53.999Z,25.37
2023-03-15T16:12:33.574Z,24.55
2023-03-15T16:13:33.525Z,24.48
2023-03-15T16:14:33.532Z,24.42
2023-03-15T16:15:33.647Z,24.29
2023-03-15T16:16:33.515Z,24.24
2023-03-15T16:17:33.524Z,24.12
2023-03-15T16:18:33.527Z,24.17
2023-03-15T16:19:33.532Z,24.09
2023-03-15T16:20:33.517Z,24.03
2023-03-15T16:21:33.639Z,24.00
2023-03-15T16:22:33.501Z,23.85
2023-03-15T16:23:33.516Z,23.89
2023-03-15T16:24:35.977Z,23.82
2023-03-15T16:25:33.501Z,23.77
2023-03-15T16:26:33.507Z,23.67
2023-03-15T16:27:33.815Z,23.70
2023-03-15T16:29:33.499Z,23.60
2023-03-15T16:30:33.483Z,23.50
2023-03-15T16:31:33.537Z,23.45
2023-03-15T16:32:43.858Z,23.42
2023-03-15T16:33:33.491Z,23.40
2023-03-15T16:34:33.472Z,23.37
2023-03-15T16:35:33.510Z,23.26
2023-03-15T16:36:33.470Z,23.26
2023-03-15T16:37:33.505Z,23.19
2023-03-15T16:38:33.462Z,23.21
2023-03-15T16:39:33.460Z,23.19
2023-03-15T16:40:33.449Z,23.10
2023-03-15T16:41:33.452Z,23.04
2023-03-15T16:42:33.457Z,23.03
2023-03-15T16:43:33.457Z,23.04
2023-03-15T16:44:33.463Z,23.01
2023-03-15T16:45:33.480Z,23.01
2023-03-15T16:46:33.468Z,22.91
2023-03-15T16:47:33.450Z,22.92
2023-03-15T16:48:33.452Z,22.85
2023-03-15T16:49:33.427Z,22.84
2023-03-15T16:50:33.433Z,22.86
2023-03-15T16:51:33.424Z,22.81
2023-03-15T16:52:33.430Z,22.71
2023-03-15T16:53:33.436Z,22.69
2023-03-15T16:54:40.884Z,22.75
2023-03-15T16:55:33.429Z,22.73
2023-03-15T16:56:33.423Z,22.64
2023-03-15T16:57:33.424Z,22.57
2023-03-15T16:58:33.444Z,22.60
2023-03-15T16:59:33.415Z,22.54
2023-03-15T17:00:33.421Z,22.61
2023-03-15T17:01:33.459Z,22.63
2023-03-15T17:02:33.392Z,22.57
2023-03-15T17:03:33.431Z,22.49
2023-03-15T17:04:33.414Z,22.49
2023-03-15T17:05:33.425Z,22.46
2023-03-15T17:06:33.382Z,22.45
2023-03-15T17:07:33.424Z,22.49
2023-03-15T17:08:33.392Z,22.42
2023-03-15T17:09:33.384Z,22.33
2023-03-15T17:10:33.381Z,22.41
2023-03-15T17:11:33.375Z,22.39
2023-03-15T17:12:33.364Z,22.31
2023-03-15T17:13:33.372Z,22.34
2023-03-15T17:14:33.361Z,22.22
2023-03-15T17:15:33.361Z,22.23
2023-03-15T17:16:33.457Z,22.24
2023-03-15T17:17:33.689Z,22.14
2023-03-15T17:18:33.442Z,22.18
2023-03-15T17:19:33.380Z,22.20
2023-03-15T17:20:33.348Z,22.05
2023-03-15T17:21:33.353Z,22.18
2023-03-15T17:22:33.335Z,22.05
2023-03-15T17:23:33.332Z,22.16
2023-03-15T17:24:33.327Z,22.07
2023-03-15T17:25:33.331Z,22.11
2023-03-15T17:26:33.333Z,22.12